• Join FlightAware (Why Join?)
  • Login
  • US Flag 
05:13PM EDT


 

Airport Tracker/Info


-or-


 

Live Flight TrackerFlight Track Log ✈ AWE4096 ✈ 12-Oct-2013 ✈ KCLT - KAGS

Flight Track Log - Related Links

Times and Time Zones

All times are in EDT time to prevent confusion due to time zone crossing. See the AWE4096 flight status page for this flight to view local times or setup timezone preferences in your user account.

Time Position Orientation Groundspeed Altitude Reporting Facility
EDT Latitude Longitude Course Direction KTS MPH feet Rate Location/Type
01:19PM 35.2289 -80.9572 172° South 157 181 1,700  Level Atlanta Center
01:19PM 35.2394 -80.9619 340° North 159 183 2,200 1,920 Climbing Atlanta Center
01:20PM 35.2778 -80.9936 326° Northwest 215 247 3,900 2,040 Climbing Atlanta Center
01:21PM 35.0010 -81.0688 224° Southwest  Level Estimated
01:21PM 35.2861 -81.0797 277° West 275 316 6,200  Level Atlanta Center
01:22PM 34.9300 -81.1086 192° South  Level Estimated
01:22PM 35.2781 -81.1717 264° West 292 336 8,000  Level Atlanta Center
01:23PM 34.8591 -81.1483 194° South  Level Estimated
01:23PM 35.2189 -81.2294 219° Southwest 304 350 9,200  Level Atlanta Center
01:24PM 34.7817 -81.1355 172° South  Level FlightAware Approximate
01:24PM 35.1267 -81.2175 174° South 311 358 10,700  Level Atlanta Center
01:25PM 35.0417 -81.1544 149° Southeast 347 399 12,000 600 Climbing Atlanta Center
01:26PM 34.9589 -81.0939 149° Southeast 353 406 12,000  Level Atlanta Center
01:28PM 34.7389 -81.0608 173° South 339 390 12,000  Level Jacksonville Center
01:29PM 34.6456 -81.0881 193° South 340 391 12,000  Level Jacksonville Center
01:30PM 34.5500 -81.1128 192° South 350 403 12,000  Level Jacksonville Center
01:31PM 34.4586 -81.1425 195° South 349 402 12,000  Level Jacksonville Center
01:32PM 34.3781 -81.2019 211° Southwest 344 396 12,000  Level Jacksonville Center
01:33PM 34.3036 -81.2586 212° Southwest 344 396 12,000  Level Jacksonville Center
01:34PM 34.2272 -81.3178 213° Southwest 344 396 12,000  Level Jacksonville Center
01:35PM 34.1444 -81.3769 211° Southwest 344 396 12,000  Level Jacksonville Center
01:36PM 34.0639 -81.4411 213° Southwest 344 396 12,000  Level Jacksonville Center
01:38PM 33.9974 -81.4908 212° Southwest  Level FlightAware Approximate
01:45PM 33.5782 -81.7943 203° Southwest  Level FlightAware Approximate
01:46PM 33.5178 -81.8366 212° Southwest  Level FlightAware Approximate
01:47PM 33.4676 -81.8829 203° Southwest  Level FlightAware Approximate
01:48PM 33.4055 -81.9209 212° Southwest  Level FlightAware Approximate
01:49PM 33.3667 -81.9500 212° Southwest  Level FlightAware Approximate